Archival Weather

Heathrow

London, United Kingdom (EGLL)

Report from: Friday, June 21, 2024 6:20 PM BST
Current time: Sunday, July 14, 2024 12:27 PM BST

Current weather – Weather history – Daily summaries
Weather forecast

Temperature22.0°C (71.6°F)
Dew point9.0°C (48.2°F)
Winds 16 kts (8.2 m/s, 18.4 mph) Vrb
Winds variableWinds variable from South (190°) to West-Southwest (250°)
Visibility6.2 mi. (10 km)
Clouds Sky clear
Altimeter29.85 in.Hg (1011 mB)
Relative humidity43 %
Density altitude1,056 ft. (322 m)
Remarks Fully automated report
No clouds detected
Flight conditions Visual Meteorological Conditions
Raw dataEGLL 211720Z AUTO 22016KT 190V250 9999 NCD 22/09 Q1011
An error has occurred. This application may no longer respond until reloaded. Reload 🗙